Time;durP1;ratioP1;P1;durP2;ratioP2;P2;SDS_P1;SDS_P2;PMS_P1;PMS_P2;Temp;Humidity;BMP_temperature;BMP_pressure;BME280_temperature;BME280_humidity;BME280_pressure;Samples;Min_cycle;Max_cycle;Signal;HPM_P1;HPM_P2
2022/09/25 00:01:02;;;;;;;3.03;2.83;;;;;;;9.43;84.36;62973.19;5047839;28;20439;-80
2022/09/25 00:03:31;;;;;;;3.00;2.80;;;;;;;9.39;84.83;62963.97;5048229;28;20230;-79
2022/09/25 00:06:04;;;;;;;3.20;3.00;;;;;;;9.38;84.41;62965.50;5034333;28;20202;-80
2022/09/25 00:08:32;;;;;;;3.38;3.00;;;;;;;9.35;84.13;62967.47;5046905;28;20226;-80
2022/09/25 00:11:00;;;;;;;3.08;2.95;;;;;;;9.30;84.30;62960.28;5030741;28;20202;-80
2022/09/25 00:13:28;;;;;;;3.20;2.92;;;;;;;9.26;84.71;62956.16;5042878;28;20495;-79
2022/09/25 00:15:56;;;;;;;3.72;3.08;;;;;;;9.28;85.49;62960.25;5048828;28;20248;-81
2022/09/25 00:21:10;;;;;;;3.17;2.97;;;;;;;9.24;86.95;62951.00;5044911;28;20205;-79
2022/09/25 00:23:38;;;;;;;3.17;2.97;;;;;;;9.11;87.07;62938.09;5047293;28;20222;-80
2022/09/25 00:26:08;;;;;;;3.60;2.92;;;;;;;9.13;86.80;62939.63;5046883;28;20202;-79
2022/09/25 00:28:38;;;;;;;2.80;2.70;;;;;;;9.08;86.65;62937.00;5033703;28;20294;-80
2022/09/25 00:31:08;;;;;;;3.05;2.85;;;;;;;9.02;87.47;62928.81;5043502;28;20253;-80
2022/09/25 00:33:35;;;;;;;3.03;2.83;;;;;;;8.99;87.95;62925.19;5046846;28;20522;-80
2022/09/25 00:36:04;;;;;;;2.58;2.47;;;;;;;8.85;88.88;62910.72;5044140;28;20291;-77
2022/09/25 00:38:32;;;;;;;2.83;2.72;;;;;;;8.87;88.36;62912.78;5046074;28;20218;-78
2022/09/25 00:41:00;;;;;;;3.55;3.25;;;;;;;8.75;89.40;62902.91;5042935;28;20194;-79
2022/09/25 00:43:37;;;;;;;3.08;2.88;;;;;;;8.72;89.47;62900.31;5043668;28;20248;-78
2022/09/25 00:46:10;;;;;;;4.93;3.35;;;;;;;8.68;89.53;62895.69;5046422;28;20335;-78
2022/09/25 00:48:39;;;;;;;3.08;2.88;;;;;;;8.67;89.70;62892.63;5041934;28;20573;-77
2022/09/25 00:51:06;;;;;;;3.67;3.45;;;;;;;8.71;89.64;62896.25;5045103;28;20201;-77
2022/09/25 00:53:39;;;;;;;2.97;2.80;;;;;;;8.71;90.96;62896.75;5044054;28;20222;-77
2022/09/25 00:56:08;;;;;;;4.40;3.13;;;;;;;8.73;90.37;62898.31;5043092;28;20387;-77
2022/09/25 00:58:37;;;;;;;3.95;3.10;;;;;;;8.67;90.06;62889.56;5043508;28;20233;-77
2022/09/25 01:01:05;;;;;;;2.83;2.63;;;;;;;8.62;90.53;62886.94;5047439;28;20277;-77
2022/09/25 01:03:33;;;;;;;2.83;2.70;;;;;;;8.57;90.38;62884.31;5042764;28;20243;-77
2022/09/25 01:06:01;;;;;;;3.20;2.97;;;;;;;8.55;90.81;62877.16;5044392;28;20202;-77
2022/09/25 01:08:31;;;;;;;3.40;3.17;;;;;;;8.51;91.17;62875.59;5044540;28;20240;-78
2022/09/25 01:10:59;;;;;;;3.10;2.90;;;;;;;8.49;91.73;62873.50;5040883;28;20224;-77
2022/09/25 01:13:28;;;;;;;3.13;3.03;;;;;;;8.54;92.36;62879.19;5036199;28;20229;-81
2022/09/25 01:16:01;;;;;;;2.83;2.72;;;;;;;8.51;93.03;62878.63;5043799;28;20202;-78
2022/09/25 01:18:41;;;;;;;3.40;3.20;;;;;;;8.51;92.84;62873.53;5043770;28;20332;-77
2022/09/25 01:21:19;;;;;;;4.78;2.60;;;;;;;8.48;93.11;62872.47;5043619;28;20202;-77
2022/09/25 01:24:27;;;;;;;4.30;3.45;;;;;;;8.46;92.90;62870.91;5023879;28;20222;-79
2022/09/25 01:27:16;;;;;;;3.30;3.10;;;;;;;8.55;92.72;62880.22;5006793;28;20550;-79
2022/09/25 01:29:51;;;;;;;4.03;3.13;;;;;;;8.53;93.38;62877.63;5049148;28;20351;-80
2022/09/25 01:32:27;;;;;;;3.45;3.25;;;;;;;8.44;94.04;62868.84;5049939;28;20285;-80
2022/09/25 01:35:02;;;;;;;3.08;2.97;;;;;;;8.46;94.04;62875.47;5050093;28;20503;-77
2022/09/25 01:37:37;;;;;;;3.53;3.33;;;;;;;8.47;93.63;62876.53;5034059;28;20240;-79
2022/09/25 01:40:10;;;;;;;3.67;3.00;;;;;;;8.42;93.85;62866.78;5045330;28;20198;-78
2022/09/25 01:42:43;;;;;;;3.83;3.45;;;;;;;8.38;95.00;62859.59;5032037;28;20557;-78
2022/09/25 01:45:17;;;;;;;3.10;2.80;;;;;;;8.33;95.04;62862.06;5040938;28;20202;-79
2022/09/25 01:47:48;;;;;;;3.58;3.30;;;;;;;8.31;95.81;62854.91;5048634;28;20251;-78
2022/09/25 01:50:20;;;;;;;3.67;3.38;;;;;;;8.32;95.80;62856.47;5046535;28;20609;-77
2022/09/25 01:52:50;;;;;;;3.40;3.17;;;;;;;8.34;96.00;62858.00;5045330;28;20222;-79
2022/09/25 01:55:23;;;;;;;3.60;3.42;;;;;;;8.28;96.86;62847.25;5050030;28;20210;-77
2022/09/25 01:57:55;;;;;;;3.50;3.30;;;;;;;8.37;97.51;62863.66;5044862;28;20229;-78
2022/09/25 02:00:25;;;;;;;3.85;3.65;;;;;;;8.28;97.82;62852.34;5043704;28;20263;-78
2022/09/25 02:02:56;;;;;;;5.18;4.68;;;;;;;8.36;98.15;62862.59;5047539;28;20220;-78
2022/09/25 02:05:28;;;;;;;9.27;5.55;;;;;;;8.27;98.44;62851.28;5052417;28;20182;-77
2022/09/25 02:08:00;;;;;;;8.48;6.22;;;;;;;8.17;99.76;62840.94;5045142;28;20237;-78
2022/09/25 02:10:33;;;;;;;8.10;6.00;;;;;;;8.14;100.00;62835.31;5049908;28;20186;-77
2022/09/25 02:13:05;;;;;;;7.55;6.60;;;;;;;8.12;100.00;62840.84;5045000;28;20420;-79
2022/09/25 02:15:37;;;;;;;8.32;6.85;;;;;;;8.09;100.00;62832.69;5045775;28;20198;-78
2022/09/25 02:20:57;;;;;;;4.05;3.75;;;;;;;8.06;100.00;62830.09;5046116;28;20223;-78
2022/09/25 02:23:28;;;;;;;4.88;4.47;;;;;;;8.01;100.00;62822.41;5046807;28;20225;-77
2022/09/25 02:26:00;;;;;;;8.05;4.20;;;;;;;7.97;100.00;62815.72;5041161;28;20194;-78
2022/09/25 02:28:27;;;;;;;5.95;5.45;;;;;;;7.92;100.00;62820.72;5026261;28;20222;-78
2022/09/25 02:30:57;;;;;;;5.50;4.97;;;;;;;7.88;100.00;62811.53;5041246;28;20214;-78
2022/09/25 02:33:26;;;;;;;4.22;3.92;;;;;;;7.85;100.00;62810.94;5047825;28;20214;-78
2022/09/25 02:35:52;;;;;;;5.38;4.57;;;;;;;7.86;100.00;62809.47;5046539;28;20202;-78
2022/09/25 02:38:21;;;;;;;5.97;5.00;;;;;;;7.79;100.00;62801.72;5043559;28;20450;-78
2022/09/25 02:40:55;;;;;;;4.38;4.07;;;;;;;7.84;100.00;62807.38;5048601;28;20198;-80
2022/09/25 02:43:37;;;;;;;4.95;4.60;;;;;;;7.90;100.00;62813.56;5044402;28;20232;-77
2022/09/25 02:46:11;;;;;;;6.80;5.00;;;;;;;7.90;100.00;62813.56;5046251;28;20235;-78
2022/09/25 02:48:47;;;;;;;6.22;5.28;;;;;;;7.95;100.00;62816.22;5046217;28;20235;-79
2022/09/25 02:51:21;;;;;;;6.72;5.97;;;;;;;8.04;100.00;62828.03;5046131;28;20240;-78
2022/09/25 02:53:56;;;;;;;6.85;6.15;;;;;;;8.04;100.00;62830.56;5044692;28;20233;-77
2022/09/25 02:56:28;;;;;;;7.97;6.10;;;;;;;8.04;100.00;62828.03;5044525;28;20255;-78
2022/09/25 02:58:59;;;;;;;5.25;4.85;;;;;;;8.07;100.00;62828.63;5043448;28;20252;-78
2022/09/25 03:01:31;;;;;;;6.60;4.38;;;;;;;8.07;100.00;62828.09;5043311;28;20276;-77
2022/09/25 03:04:00;;;;;;;3.50;3.30;;;;;;;8.07;100.00;62831.16;5032633;28;20186;-77
2022/09/25 03:06:28;;;;;;;3.85;3.55;;;;;;;8.14;100.00;62835.81;5044234;28;20451;-77
2022/09/25 03:08:56;;;;;;;4.35;3.97;;;;;;;8.18;100.00;62839.97;5046876;28;20194;-79
2022/09/25 03:11:26;;;;;;;4.13;3.60;;;;;;;8.24;100.00;62847.69;5048479;28;20205;-78
2022/09/25 03:13:59;;;;;;;4.63;4.18;;;;;;;8.27;100.00;62848.75;5043631;28;20198;-79
2022/09/25 03:16:35;;;;;;;3.47;3.28;;;;;;;8.20;100.00;62844.56;5046234;28;20206;-80
2022/09/25 03:19:03;;;;;;;3.83;3.55;;;;;;;8.19;100.00;62843.53;5046613;28;20229;-79
2022/09/25 03:21:30;;;;;;;3.45;3.15;;;;;;;8.20;100.00;62844.03;5048878;28;20198;-78
2022/09/25 03:23:58;;;;;;;3.67;3.38;;;;;;;8.27;100.00;62848.75;5047773;28;20198;-81
2022/09/25 03:26:26;;;;;;;3.70;3.40;;;;;;;8.27;99.71;62848.25;5045567;28;20462;-79
2022/09/25 03:28:54;;;;;;;4.07;3.15;;;;;;;8.35;98.73;62859.56;5048325;28;20221;-79
2022/09/25 03:31:22;;;;;;;3.60;3.40;;;;;;;8.37;98.95;62861.63;5046966;28;20202;-79
2022/09/25 03:33:53;;;;;;;3.92;3.63;;;;;;;8.35;99.01;62859.03;5045195;28;20247;-81
2022/09/25 03:36:23;;;;;;;8.55;3.45;;;;;;;8.38;98.53;62862.13;5048073;28;20202;-80
2022/09/25 03:38:56;;;;;;;3.38;3.17;;;;;;;8.35;98.49;62856.50;5043652;28;20297;-79
2022/09/25 03:41:24;;;;;;;6.10;3.97;;;;;;;8.32;98.71;62856.47;5047932;28;20194;-80
2022/09/25 03:43:52;;;;;;;2.75;2.65;;;;;;;8.32;98.88;62853.41;5046693;28;20222;-79
2022/09/25 03:46:22;;;;;;;3.60;3.40;;;;;;;8.26;98.87;62852.81;5043616;28;20205;-79
2022/09/25 03:48:54;;;;;;;3.65;3.35;;;;;;;8.19;99.03;62841.00;5041546;28;20272;-79
2022/09/25 03:51:22;;;;;;;2.95;2.83;;;;;;;8.13;98.78;62836.81;5046728;28;20202;-80
2022/09/25 03:53:50;;;;;;;3.28;3.03;;;;;;;8.11;98.80;62834.75;5043035;28;20435;-77
2022/09/25 03:56:19;;;;;;;3.60;3.40;;;;;;;8.15;99.93;62841.41;5044855;28;20369;-78
2022/09/25 03:58:47;;;;;;;3.33;3.13;;;;;;;8.11;100.00;62832.22;5045571;28;20233;-78
2022/09/25 04:01:14;;;;;;;5.45;3.60;;;;;;;8.10;100.00;62836.78;5042343;28;20238;-78
2022/09/25 04:03:46;;;;;;;4.30;3.78;;;;;;;8.01;100.00;62827.47;5044909;28;20240;-77
2022/09/25 04:06:17;;;;;;;3.35;3.15;;;;;;;7.96;100.00;62817.25;5044341;28;20202;-77
2022/09/25 04:08:45;;;;;;;3.65;3.45;;;;;;;7.89;100.00;62812.03;5043333;28;20285;-78
2022/09/25 04:11:11;;;;;;;3.90;3.42;;;;;;;7.82;100.00;62805.31;5040835;28;20269;-78
2022/09/25 04:13:39;;;;;;;4.47;4.10;;;;;;;7.78;100.00;62803.22;5041198;28;20217;-77
2022/09/25 04:16:07;;;;;;;4.35;4.00;;;;;;;7.73;100.00;62795.53;5043436;28;20202;-79
2022/09/25 04:18:34;;;;;;;5.20;4.70;;;;;;;7.74;100.00;62792.00;5043669;28;20505;-78
2022/09/25 04:21:02;;;;;;;5.50;5.03;;;;;;;7.69;100.00;62788.84;5048501;28;20652;-77
2022/09/25 04:23:31;;;;;;;5.55;5.05;;;;;;;7.71;100.00;62790.91;5044283;28;20246;-77
2022/09/25 04:25:58;;;;;;;5.57;5.07;;;;;;;7.58;100.00;62780.56;5044335;28;20194;-78
2022/09/25 04:28:25;;;;;;;6.20;5.18;;;;;;;7.58;100.00;62783.09;5037509;28;20222;-80
2022/09/25 04:30:53;;;;;;;6.43;5.82;;;;;;;7.49;100.00;62773.78;5043959;28;20209;-79
2022/09/25 04:36:05;;;;;;;5.25;4.75;;;;;;;7.52;100.00;62768.78;5045484;28;20205;-79
2022/09/25 04:38:33;;;;;;;5.35;4.65;;;;;;;7.46;100.00;62767.63;5030405;28;20230;-78
2022/09/25 04:41:01;;;;;;;6.18;5.28;;;;;;;7.48;100.00;62767.69;5027628;28;20206;-78
2022/09/25 04:43:28;;;;;;;5.65;5.15;;;;;;;7.44;100.00;62768.13;5046782;28;20261;-77
2022/09/25 04:45:55;;;;;;;6.13;5.53;;;;;;;7.39;100.00;62755.34;5032688;28;20433;-78
2022/09/25 04:48:22;;;;;;;5.22;4.80;;;;;;;7.43;100.00;62765.06;5043828;28;20264;-79
2022/09/25 04:50:50;;;;;;;5.63;5.20;;;;;;;7.49;100.00;62768.72;5039139;28;20255;-77
2022/09/25 04:53:17;;;;;;;6.45;5.38;;;;;;;7.53;100.00;62772.84;5043353;28;20237;-79
2022/09/25 04:55:46;;;;;;;5.30;4.80;;;;;;;7.46;100.00;62767.63;5038527;28;20537;-77
2022/09/25 04:58:13;;;;;;;6.63;5.70;;;;;;;7.64;100.00;62786.22;5046031;28;20257;-76
2022/09/25 05:00:41;;;;;;;6.90;5.30;;;;;;;7.68;100.00;62792.91;5047144;28;20220;-78
2022/09/25 05:03:08;;;;;;;6.38;5.78;;;;;;;7.75;100.00;62800.63;5047867;28;20256;-78
2022/09/25 05:05:35;;;;;;;7.13;6.43;;;;;;;7.83;100.00;62803.84;5046902;28;20221;-78
2022/09/25 05:08:03;;;;;;;8.32;6.43;;;;;;;7.91;100.00;62814.63;5046681;28;20249;-78
2022/09/25 05:10:31;;;;;;;6.28;5.68;;;;;;;8.02;100.00;62823.44;5048394;28;20247;-78
2022/09/25 05:13:01;;;;;;;6.70;5.60;;;;;;;8.20;100.00;62838.97;5047189;28;20268;-77
2022/09/25 05:15:30;;;;;;;7.97;5.55;;;;;;;8.35;100.00;62859.56;5050871;28;20202;-77
2022/09/25 05:18:01;;;;;;;8.82;5.82;;;;;;;8.49;100.00;62874.00;5047448;28;20356;-77
2022/09/25 05:20:28;;;;;;;8.23;5.68;;;;;;;8.68;100.00;62890.59;5047198;28;20198;-77
2022/09/25 05:22:56;;;;;;;6.28;4.82;;;;;;;8.96;100.00;62922.06;5047726;28;20577;-78
2022/09/25 05:25:24;;;;;;;6.85;5.13;;;;;;;9.02;100.00;62926.25;5048303;28;20213;-79
2022/09/25 05:27:51;;;;;;;7.35;6.25;;;;;;;9.03;100.00;62924.75;5047569;28;20245;-77
2022/09/25 05:30:20;;;;;;;7.18;6.47;;;;;;;9.20;100.00;62947.41;5050901;28;20490;-78
2022/09/25 05:32:49;;;;;;;8.90;6.85;;;;;;;9.23;100.00;62947.94;5047052;28;20210;-77
2022/09/25 05:35:17;;;;;;;7.78;6.60;;;;;;;9.15;100.00;62939.69;5039165;28;20198;-77
2022/09/25 05:37:44;;;;;;;9.23;6.28;;;;;;;9.19;100.00;62943.84;5033920;28;20249;-77
2022/09/25 05:40:11;;;;;;;9.60;6.82;;;;;;;9.44;100.00;62971.19;5031077;28;20237;-77
2022/09/25 05:42:38;;;;;;;7.65;6.95;;;;;;;9.61;100.00;62989.25;5032963;28;20214;-77
2022/09/25 05:45:06;;;;;;;6.70;6.10;;;;;;;9.79;100.00;63009.91;5039152;28;20206;-78
2022/09/25 05:47:34;;;;;;;11.27;6.63;;;;;;;10.00;99.82;63024.00;5036549;28;20228;-78
2022/09/25 05:50:01;;;;;;;8.68;6.88;;;;;;;10.19;98.73;63051.84;5030859;28;20203;-78
2022/09/25 05:52:27;;;;;;;11.90;8.35;;;;;;;10.10;98.54;63037.44;5029841;28;20274;-77
2022/09/25 05:54:55;;;;;;;7.90;6.85;;;;;;;9.98;98.94;63024.47;5030332;28;20210;-77
2022/09/25 05:57:22;;;;;;;7.18;6.55;;;;;;;10.01;97.40;63032.69;5036199;28;20237;-78
2022/09/25 05:59:49;;;;;;;8.07;7.07;;;;;;;10.09;95.84;63036.41;5033994;28;20202;-77
2022/09/25 06:02:17;;;;;;;7.20;6.50;;;;;;;10.10;94.49;63037.44;5042731;28;20641;-77
2022/09/25 06:04:45;;;;;;;7.10;6.45;;;;;;;10.05;93.41;63036.81;5046369;28;20244;-77
2022/09/25 06:07:11;;;;;;;7.50;6.78;;;;;;;10.27;95.08;63057.56;5043993;28;20280;-76
2022/09/25 06:09:39;;;;;;;7.25;6.38;;;;;;;10.40;92.70;63065.94;5045160;28;20206;-77
2022/09/25 06:12:06;;;;;;;6.95;6.35;;;;;;;10.33;93.10;63061.22;5043760;28;20218;-76
2022/09/25 06:14:34;;;;;;;8.27;6.85;;;;;;;10.54;92.92;63081.94;5044598;28;20224;-76
2022/09/25 06:17:01;;;;;;;6.72;5.38;;;;;;;10.54;90.58;63084.47;5048321;28;20218;-78
2022/09/25 06:19:38;;;;;;;5.55;5.05;;;;;;;10.71;90.07;63100.03;5046636;28;20280;-78
2022/09/25 06:22:07;;;;;;;11.18;6.47;;;;;;;10.72;88.45;63103.09;5048269;28;20252;-78
2022/09/25 06:24:33;;;;;;;7.00;5.90;;;;;;;10.88;88.13;63120.19;5047109;28;20198;-79
2022/09/25 06:27:00;;;;;;;5.95;5.28;;;;;;;11.12;87.06;63139.41;5045381;28;20271;-78
2022/09/25 06:29:30;;;;;;;6.00;5.45;;;;;;;11.36;85.72;63169.38;5046802;28;20208;-78
2022/09/25 06:31:57;;;;;;;8.38;4.38;;;;;;;11.56;84.64;63193.16;5048623;28;20264;-78
2022/09/25 06:34:24;;;;;;;4.97;4.57;;;;;;;11.65;83.12;63196.38;5044059;28;20198;-77
2022/09/25 06:36:50;;;;;;;9.50;4.28;;;;;;;11.75;82.55;63209.28;5039110;28;20268;-78
2022/09/25 06:39:19;;;;;;;5.43;4.10;;;;;;;11.84;82.11;63221.16;5046790;28;20226;-79
2022/09/25 06:41:45;;;;;;;4.80;4.20;;;;;;;12.07;80.86;63237.31;5038734;28;20194;-78
2022/09/25 06:44:12;;;;;;;4.47;4.18;;;;;;;12.27;78.19;63268.78;5037368;28;20202;-78
2022/09/25 06:46:43;;;;;;;6.22;4.30;;;;;;;12.14;80.31;63250.22;5036681;28;20199;-78
2022/09/25 06:49:14;;;;;;;4.60;4.20;;;;;;;12.07;80.49;63242.44;5035403;28;20198;-76
2022/09/25 06:51:41;;;;;;;4.57;4.18;;;;;;;11.97;81.08;63234.63;5038952;28;20211;-78
2022/09/25 06:54:08;;;;;;;3.97;3.67;;;;;;;12.01;81.50;63231.63;5038631;28;20436;-77
2022/09/25 06:56:36;;;;;;;5.88;4.40;;;;;;;12.02;80.39;63235.22;5036364;28;20207;-76
2022/09/25 06:59:03;;;;;;;4.43;4.13;;;;;;;12.14;81.33;63252.75;5035834;28;20327;-77
2022/09/25 07:01:30;;;;;;;4.00;3.58;;;;;;;12.32;80.94;63268.34;5036000;28;20194;-80
2022/09/25 07:03:55;;;;;;;4.53;4.15;;;;;;;12.35;79.91;63269.44;5036604;28;20194;-77
2022/09/25 07:06:30;;;;;;;5.47;4.97;;;;;;;12.46;79.25;63280.28;5033218;28;20205;-77
2022/09/25 07:08:56;;;;;;;5.22;4.38;;;;;;;12.36;79.50;63270.47;5039093;28;20213;-77
2022/09/25 07:11:25;;;;;;;4.38;4.07;;;;;;;11.90;80.37;63224.81;5039060;28;20225;-78
2022/09/25 07:13:54;;;;;;;6.25;4.72;;;;;;;11.95;81.61;63227.44;5035705;28;20535;-78
2022/09/25 07:16:22;;;;;;;4.78;4.47;;;;;;;12.23;80.75;63259.00;5034969;28;20222;-79
2022/09/25 07:18:51;;;;;;;5.07;4.57;;;;;;;12.30;79.89;63269.34;5035649;28;20237;-78
2022/09/25 07:21:20;;;;;;;5.47;4.93;;;;;;;12.43;78.46;63282.28;5038652;28;20222;-78
2022/09/25 07:23:48;;;;;;;7.20;4.82;;;;;;;12.08;78.25;63246.03;5037627;28;20217;-76
2022/09/25 07:26:21;;;;;;;5.82;4.70;;;;;;;12.12;78.67;63242.50;5036631;28;20207;-77
2022/09/25 07:28:52;;;;;;;5.80;5.18;;;;;;;12.12;77.07;63248.13;5038058;28;20243;-77
2022/09/25 07:31:23;;;;;;;6.97;4.53;;;;;;;12.18;77.46;63254.34;5037162;28;20214;-78
2022/09/25 07:33:50;;;;;;;5.65;5.20;;;;;;;12.26;76.84;63262.66;5035812;28;20226;-77
2022/09/25 07:36:17;;;;;;;9.25;5.10;;;;;;;12.40;77.00;63276.63;5046828;28;20190;-77
2022/09/25 07:38:49;;;;;;;5.25;4.50;;;;;;;12.64;74.58;63306.63;5025868;28;20531;-78
2022/09/25 07:41:17;;;;;;;6.03;5.43;;;;;;;12.62;74.38;63296.88;5042914;28;20198;-78
2022/09/25 07:43:44;;;;;;;5.22;4.82;;;;;;;12.65;75.42;63300.00;5046311;28;20221;-78
2022/09/25 07:46:11;;;;;;;7.45;5.03;;;;;;;12.79;73.98;63317.59;5049280;28;20261;-78
2022/09/25 07:48:40;;;;;;;5.95;5.15;;;;;;;13.00;73.83;63338.31;5045439;28;20284;-79
2022/09/25 07:51:08;;;;;;;11.52;5.88;;;;;;;13.14;71.99;63350.84;5044231;28;20206;-78
2022/09/25 07:53:35;;;;;;;7.22;4.60;;;;;;;13.36;70.11;63373.66;5048115;28;20218;-78
2022/09/25 07:56:03;;;;;;;5.30;4.90;;;;;;;13.53;67.89;63390.78;5042061;28;20194;-78
2022/09/25 07:58:29;;;;;;;7.90;5.47;;;;;;;13.74;67.84;63415.66;5034030;28;20275;-79
2022/09/25 08:01:00;;;;;;;8.50;5.18;;;;;;;13.97;66.07;63441.03;5039284;28;20274;-78
2022/09/25 08:03:27;;;;;;;5.13;4.70;;;;;;;14.08;65.81;63449.91;5035812;28;20240;-77
2022/09/25 08:05:59;;;;;;;5.95;5.43;;;;;;;14.32;65.84;63475.38;5041728;28;20232;-79
2022/09/25 08:08:26;;;;;;;5.60;4.97;;;;;;;14.52;61.11;63496.13;5037833;28;20225;-77
2022/09/25 08:10:54;;;;;;;5.07;4.60;;;;;;;14.49;61.69;63493.03;5043646;28;20225;-78
2022/09/25 08:13:22;;;;;;;4.43;4.07;;;;;;;14.37;60.99;63480.03;5043753;28;20225;-77
2022/09/25 08:15:49;;;;;;;9.07;4.63;;;;;;;14.48;59.83;63491.47;5045439;28;20415;-78
2022/09/25 08:18:15;;;;;;;5.15;4.63;;;;;;;14.41;59.95;63484.72;5041058;28;20222;-77
2022/09/25 08:20:42;;;;;;;5.07;4.70;;;;;;;14.47;59.66;63492.97;5040791;28;20428;-78
2022/09/25 08:23:11;;;;;;;6.57;5.32;;;;;;;14.59;59.33;63500.84;5047005;28;20222;-78
2022/09/25 08:25:37;;;;;;;5.00;4.60;;;;;;;14.58;57.48;63504.41;5044980;28;20197;-78
2022/09/25 08:28:05;;;;;;;9.45;4.97;;;;;;;14.78;58.04;63523.16;5043304;28;20240;-78
2022/09/25 08:30:32;;;;;;;7.82;4.25;;;;;;;14.98;57.52;63538.25;5048342;28;20201;-77
2022/09/25 08:32:59;;;;;;;5.82;5.00;;;;;;;14.95;56.48;63542.84;5046163;28;20240;-77
2022/09/25 08:35:26;;;;;;;5.10;4.70;;;;;;;15.05;54.93;63551.19;5045427;28;20214;-78
2022/09/25 08:37:53;;;;;;;5.30;4.72;;;;;;;15.12;53.93;63555.38;5039615;28;20218;-78
2022/09/25 08:40:26;;;;;;;9.02;4.10;;;;;;;15.27;53.17;63573.03;5028187;28;20413;-78
2022/09/25 08:42:55;;;;;;;9.98;4.32;;;;;;;15.47;53.60;63594.34;5041493;28;20221;-79
2022/09/25 08:51:05;;;;;;;4.90;4.50;;;;;;;15.77;52.36;63627.59;5043839;28;20257;-79
2022/09/25 08:53:34;;;;;;;4.07;3.78;;;;;;;15.78;51.23;63620.91;5047917;28;20221;-78
2022/09/25 08:56:19;;;;;;;4.10;3.50;;;;;;;15.93;49.45;63639.06;5045255;28;20202;-77
2022/09/25 08:58:52;;;;;;;4.10;3.70;;;;;;;16.11;48.66;63662.94;5043652;28;20225;-79
2022/09/25 09:01:23;;;;;;;9.70;4.45;;;;;;;16.33;49.52;63682.72;5046119;28;20213;-78
2022/09/25 09:03:55;;;;;;;5.53;4.22;;;;;;;16.40;49.41;63687.94;5042535;28;20220;-79
2022/09/25 09:06:28;;;;;;;5.50;5.00;;;;;;;16.37;49.52;63689.44;5045049;28;20239;-79
2022/09/25 09:09:01;;;;;;;7.43;5.70;;;;;;;16.36;49.69;63688.94;5044940;28;20228;-79
2022/09/25 09:11:35;;;;;;;5.25;4.80;;;;;;;16.33;48.61;63685.28;5027693;28;20199;-78
2022/09/25 09:14:05;;;;;;;4.72;4.30;;;;;;;16.43;48.77;63693.13;5042697;28;20257;-79
2022/09/25 09:16:41;;;;;;;6.13;4.05;;;;;;;16.51;48.08;63699.41;5045181;28;20236;-78
2022/09/25 09:19:10;;;;;;;4.45;4.15;;;;;;;16.76;48.82;63727.47;5045204;28;20219;-78
2022/09/25 09:21:38;;;;;;;4.07;3.70;;;;;;;16.96;47.20;63748.28;5043827;28;20466;-77
2022/09/25 09:24:12;;;;;;;5.88;3.92;;;;;;;17.01;47.02;63758.66;5037919;28;20198;-79
2022/09/25 09:27:13;;;;;;;5.30;3.90;;;;;;;16.95;46.02;63750.34;5044314;28;20229;-78
2022/09/25 09:29:57;;;;;;;3.50;3.30;;;;;;;16.96;45.82;63748.81;5042363;28;20185;-80
2022/09/25 09:32:40;;;;;;;3.67;3.47;;;;;;;17.04;44.73;63756.63;5043935;28;20244;-78
2022/09/25 09:35:17;;;;;;;3.15;2.95;;;;;;;17.30;44.39;63781.09;5044747;28;20247;-77
2022/09/25 09:37:55;;;;;;;3.78;3.17;;;;;;;17.48;42.66;63805.00;5048596;28;20217;-79
2022/09/25 09:40:33;;;;;;;3.17;2.97;;;;;;;17.38;42.58;63797.16;5040724;28;20419;-77
2022/09/25 09:43:11;;;;;;;3.95;3.60;;;;;;;17.71;42.86;63828.97;5038080;28;20225;-78
2022/09/25 09:45:45;;;;;;;3.55;3.25;;;;;;;18.01;42.03;63859.69;5040648;28;20197;-78
2022/09/25 09:48:19;;;;;;;3.17;3.03;;;;;;;17.65;43.58;63822.19;5045655;28;20594;-77
2022/09/25 09:50:49;;;;;;;3.83;3.53;;;;;;;17.61;44.25;63820.59;5041915;28;20216;-76
2022/09/25 09:53:28;;;;;;;4.18;3.40;;;;;;;17.91;43.96;63846.69;5044952;28;20327;-77
2022/09/25 09:56:01;;;;;;;3.50;3.30;;;;;;;17.93;42.96;63851.38;5027621;28;20194;-78
2022/09/25 09:58:35;;;;;;;3.53;3.33;;;;;;;17.89;42.93;63845.13;5033742;28;20458;-77
2022/09/25 10:01:03;;;;;;;3.92;3.10;;;;;;;17.81;42.84;63836.78;5036736;28;20201;-77
2022/09/25 10:03:36;;;;;;;3.80;3.47;;;;;;;17.67;43.01;63824.78;5037819;28;20323;-78
2022/09/25 10:06:08;;;;;;;3.63;3.42;;;;;;;17.26;43.91;63782.59;5032172;28;20198;-78
2022/09/25 10:08:35;;;;;;;3.53;3.33;;;;;;;17.35;44.35;63791.47;5035412;28;20218;-77
2022/09/25 10:11:10;;;;;;;6.05;3.85;;;;;;;17.62;42.82;63819.59;5037872;28;20197;-77
2022/09/25 10:13:41;;;;;;;6.05;3.67;;;;;;;17.49;43.23;63800.38;5034299;28;20218;-77
2022/09/25 10:16:12;;;;;;;4.00;3.63;;;;;;;17.26;44.01;63782.09;5034491;28;20400;-78
2022/09/25 10:18:46;;;;;;;6.85;3.85;;;;;;;17.16;44.65;63767.06;5028759;28;20214;-77
2022/09/25 10:21:16;;;;;;;4.30;3.80;;;;;;;17.13;44.09;63771.13;5045113;28;20209;-79
2022/09/25 10:23:48;;;;;;;6.00;3.80;;;;;;;17.17;44.46;63773.25;5046823;28;20498;-77
2022/09/25 10:26:27;;;;;;;5.78;3.97;;;;;;;17.20;44.69;63776.34;5044115;28;20214;-77
2022/09/25 10:28:57;;;;;;;5.82;3.75;;;;;;;17.14;45.83;63767.53;5043496;28;20239;-78
2022/09/25 10:31:27;;;;;;;4.35;4.15;;;;;;;17.24;45.39;63780.53;5045598;28;20200;-77
2022/09/25 10:34:03;;;;;;;4.10;3.80;;;;;;;17.34;45.12;63790.94;5044230;28;20197;-78
2022/09/25 10:36:37;;;;;;;4.20;3.83;;;;;;;17.39;44.53;63793.06;5042406;28;20264;-78
2022/09/25 10:39:05;;;;;;;4.22;3.92;;;;;;;17.32;44.15;63788.84;5039425;28;20216;-78
2022/09/25 10:41:42;;;;;;;4.20;3.88;;;;;;;17.60;43.93;63814.41;5049515;28;20266;-76
2022/09/25 10:44:23;;;;;;;5.07;4.57;;;;;;;17.81;44.12;63834.22;5048388;28;20196;-78
2022/09/25 10:52:48;;;;;;;4.13;3.83;;;;;;;18.03;42.90;63859.19;5038128;28;20455;-80
2022/09/25 10:55:24;;;;;;;3.92;3.70;;;;;;;18.17;43.07;63878.94;5046174;28;20189;-79
2022/09/25 10:57:58;;;;;;;4.13;3.75;;;;;;;18.46;42.20;63904.03;5048178;28;20298;-80
2022/09/25 11:00:26;;;;;;;3.83;3.63;;;;;;;18.55;42.08;63915.97;5049235;28;20217;-83
2022/09/25 11:02:57;;;;;;;4.07;3.70;;;;;;;18.71;41.80;63930.06;5041807;28;20217;-80
2022/09/25 11:05:28;;;;;;;5.05;3.58;;;;;;;18.93;41.26;63957.66;5047732;28;20202;-78
2022/09/25 11:07:58;;;;;;;4.47;3.55;;;;;;;18.91;40.98;63952.97;5046288;28;20225;-78
2022/09/25 11:10:28;;;;;;;3.70;3.47;;;;;;;18.93;40.41;63958.16;5042604;28;20205;-79
2022/09/25 11:12:56;;;;;;;3.42;3.22;;;;;;;19.05;39.73;63968.06;5043300;28;20209;-78
2022/09/25 11:15:27;;;;;;;3.60;3.20;;;;;;;19.04;39.65;63964.47;5048489;28;20201;-79
2022/09/25 11:17:56;;;;;;;4.50;3.10;;;;;;;19.21;39.10;63984.75;5046760;28;20214;-78
2022/09/25 11:20:29;;;;;;;3.75;3.45;;;;;;;19.38;40.05;63994.22;5041558;28;20283;-78
2022/09/25 11:23:05;;;;;;;3.35;3.03;;;;;;;19.44;39.05;64005.66;5036974;28;20412;-78
2022/09/25 11:25:41;;;;;;;7.82;3.60;;;;;;;19.45;38.28;64009.81;5026099;28;20186;-77
2022/09/25 11:28:14;;;;;;;2.92;2.72;;;;;;;19.51;40.18;64018.13;5043386;28;20221;-79
2022/09/25 11:30:51;;;;;;;3.15;2.88;;;;;;;19.60;38.53;64021.84;5039595;28;20197;-77
2022/09/25 11:33:27;;;;;;;3.20;3.00;;;;;;;19.57;37.99;64021.28;5035402;28;20224;-78
2022/09/25 11:36:00;;;;;;;3.08;2.83;;;;;;;19.64;38.28;64029.09;5036384;28;20204;-79
2022/09/25 11:41:28;;;;;;;2.88;2.67;;;;;;;19.69;38.15;64028.63;5036959;28;20288;-78
2022/09/25 11:44:06;;;;;;;3.08;2.85;;;;;;;19.84;37.42;64049.44;5033549;28;20201;-77
2022/09/25 11:46:43;;;;;;;3.53;3.25;;;;;;;20.07;38.13;64070.88;5038046;28;20217;-78
2022/09/25 11:49:18;;;;;;;4.25;3.10;;;;;;;20.28;38.15;64098.47;5036301;28;20197;-79
2022/09/25 11:52:10;;;;;;;3.42;3.03;;;;;;;20.50;39.10;64118.34;5036964;28;20220;-79
2022/09/25 11:54:48;;;;;;;4.65;3.08;;;;;;;20.62;38.80;64133.47;5040838;28;20194;-78
2022/09/25 11:57:21;;;;;;;2.83;2.63;;;;;;;20.82;38.45;64153.81;5044355;28;20221;-77
2022/09/25 12:00:04;;;;;;;2.95;2.75;;;;;;;20.95;37.71;64167.91;5045782;28;20233;-78
2022/09/25 12:02:44;;;;;;;5.30;3.05;;;;;;;21.11;37.76;64181.50;5043097;28;20217;-78
2022/09/25 12:05:32;;;;;;;3.35;3.15;;;;;;;21.22;36.27;64198.72;5043761;28;20194;-78
2022/09/25 12:08:18;;;;;;;2.70;2.60;;;;;;;21.09;34.06;64174.25;5043921;28;20233;-77
2022/09/25 12:10:57;;;;;;;2.90;2.70;;;;;;;21.11;34.57;64182.03;5044262;28;20212;-78
2022/09/25 12:13:39;;;;;;;2.60;2.40;;;;;;;21.24;35.30;64198.22;5044167;28;20228;-77